Time;durP1;ratioP1;P1;durP2;ratioP2;P2;SDS_P1;SDS_P2;PMS_P1;PMS_P2;Temp;Humidity;BMP_temperature;BMP_pressure;BME280_temperature;BME280_humidity;BME280_pressure;Samples;Min_cycle;Max_cycle;Signal;HPM_P1;HPM_P2
2022/09/25 00:01:07;;;;;;;3.85;1.20;;;11.10;99.90;;;;;;5053246;28;20025;-48
2022/09/25 00:03:33;;;;;;;4.60;1.35;;;11.10;99.90;;;;;;5053217;28;20017;-53
2022/09/25 00:06:19;;;;;;;4.22;1.45;;;11.10;99.90;;;;;;5053058;28;20511;-53
2022/09/25 00:08:46;;;;;;;5.38;1.50;;;11.10;99.90;;;;;;5053133;28;20100;-58
2022/09/25 00:11:15;;;;;;;3.17;1.30;;;11.10;99.90;;;;;;5052896;28;20037;-50
2022/09/25 00:13:41;;;;;;;;;;;11.10;99.90;;;;;;5053296;28;20033;-44
2022/09/25 00:16:10;;;;;;;1.42;1.00;;;11.10;99.90;;;;;;5053018;28;19905;-47
2022/09/25 00:21:20;;;;;;;3.10;1.27;;;11.10;99.90;;;;;;5051159;28;20040;-49
2022/09/25 00:23:46;;;;;;;4.38;1.50;;;11.20;99.90;;;;;;5052043;28;20025;-47
2022/09/25 00:26:15;;;;;;;5.53;1.30;;;11.20;99.90;;;;;;5052588;28;20040;-46
2022/09/25 00:28:41;;;;;;;7.88;2.13;;;11.10;99.90;;;;;;5052699;28;20064;-46
2022/09/25 00:31:09;;;;;;;4.95;1.52;;;11.10;99.90;;;;;;5051275;28;20079;-49
2022/09/25 00:33:36;;;;;;;3.28;1.30;;;11.20;99.90;;;;;;5047858;28;20127;-45
2022/09/25 00:36:04;;;;;;;3.58;1.73;;;11.20;99.90;;;;;;5052222;28;20037;-48
2022/09/25 00:38:30;;;;;;;3.00;1.20;;;11.20;99.90;;;;;;5052335;28;20527;-47
2022/09/25 00:40:57;;;;;;;3.45;1.10;;;11.10;99.90;;;;;;5052289;28;20028;-50
2022/09/25 00:43:55;;;;;;;4.90;1.50;;;10.50;99.90;;;;;;5052125;28;20029;-51
2022/09/25 00:46:32;;;;;;;1.83;1.00;;;11.10;99.90;;;;;;5052000;28;20025;-48
2022/09/25 00:49:32;;;;;;;3.15;0.95;;;11.20;99.90;;;;;;5052087;28;20504;-49
2022/09/25 00:52:05;;;;;;;4.50;1.05;;;11.20;99.90;;;;;;5038435;28;20778;-48
2022/09/25 00:54:41;;;;;;;3.85;1.23;;;11.20;99.90;;;;;;5052029;28;20066;-51
2022/09/25 00:57:13;;;;;;;4.00;1.27;;;11.20;99.90;;;;;;5051729;28;20027;-52
2022/09/25 00:59:43;;;;;;;3.95;1.10;;;11.20;99.90;;;;;;5052177;28;20056;-45
2022/09/25 01:02:15;;;;;;;5.25;1.15;;;11.20;99.90;;;;;;5051687;28;20051;-46
2022/09/25 01:04:45;;;;;;;2.88;1.08;;;11.20;99.90;;;;;;5052040;28;20025;-47
2022/09/25 01:07:11;;;;;;;1.20;0.80;;;11.20;99.90;;;;;;5050699;28;20357;-46
2022/09/25 01:09:37;;;;;;;1.98;1.13;;;11.30;99.90;;;;;;5051980;28;20032;-45
2022/09/25 01:12:03;;;;;;;3.30;0.98;;;11.30;99.90;;;;;;5051826;28;20017;-51
2022/09/25 01:14:32;;;;;;;2.95;1.00;;;11.30;99.90;;;;;;5051536;28;20041;-49
2022/09/25 01:16:58;;;;;;;4.95;1.13;;;11.30;99.90;;;;;;5051804;28;20029;-47
2022/09/25 01:20:07;;;;;;;3.38;1.13;;;11.20;99.90;;;;;;5051803;28;20082;-46
2022/09/25 01:22:54;;;;;;;3.25;0.90;;;11.20;99.90;;;;;;5033683;28;20522;-45
2022/09/25 01:25:19;;;;;;;4.60;1.20;;;11.20;99.90;;;;;;5051690;28;20017;-50
2022/09/25 01:28:03;;;;;;;3.85;1.23;;;11.20;99.90;;;;;;5051434;28;20021;-52
2022/09/25 01:30:32;;;;;;;3.85;1.10;;;11.20;99.90;;;;;;5051627;28;20071;-49
2022/09/25 01:33:06;;;;;;;2.45;0.90;;;11.10;99.90;;;;;;5051018;28;20079;-51
2022/09/25 01:36:30;;;;;;;4.25;1.30;;;11.10;99.90;;;;;;5050823;28;20068;-50
2022/09/25 01:39:14;;;;;;;2.05;1.10;;;11.10;99.90;;;;;;4979393;28;20568;-52
2022/09/25 01:41:57;;;;;;;4.65;1.15;;;11.10;99.90;;;;;;4983919;28;20022;-47
2022/09/25 01:44:29;;;;;;;3.58;1.30;;;11.00;99.90;;;;;;5042034;28;20500;-49
2022/09/25 01:47:01;;;;;;;4.45;1.42;;;11.00;99.90;;;;;;5050979;28;20036;-47
2022/09/25 01:49:32;;;;;;;4.32;1.20;;;11.00;99.90;;;;;;5051348;28;20091;-53
2022/09/25 01:52:00;;;;;;;4.55;1.30;;;10.90;99.90;;;;;;5051074;28;20033;-55
2022/09/25 01:54:35;;;;;;;4.78;1.50;;;11.00;99.90;;;;;;5051081;28;20036;-46
2022/09/25 01:57:09;;;;;;;4.03;1.17;;;10.90;99.90;;;;;;5049764;28;20416;-53
2022/09/25 01:59:52;;;;;;;3.10;1.08;;;10.90;99.90;;;;;;5051305;28;20029;-49
2022/09/25 02:02:23;;;;;;;3.33;1.08;;;10.90;99.90;;;;;;5050727;28;20061;-50
2022/09/25 02:05:01;;;;;;;4.82;1.20;;;10.90;99.90;;;;;;5051050;28;20388;-48
2022/09/25 02:07:35;;;;;;;4.93;1.15;;;10.80;99.90;;;;;;5050923;28;20052;-47
2022/09/25 02:10:25;;;;;;;3.33;1.45;;;10.80;99.90;;;;;;5050969;28;20028;-47
2022/09/25 02:12:57;;;;;;;5.22;1.23;;;10.80;99.90;;;;;;5050539;28;20581;-45
2022/09/25 02:15:28;;;;;;;3.90;1.30;;;10.80;99.90;;;;;;5050666;28;20182;-48
2022/09/25 02:20:49;;;;;;;7.97;1.80;;;10.80;99.90;;;;;;5050699;28;20040;-51
2022/09/25 02:23:22;;;;;;;5.53;1.80;;;10.80;99.90;;;;;;5037189;28;20029;-57
2022/09/25 02:25:58;;;;;;;7.00;1.45;;;10.80;99.90;;;;;;5050884;28;20039;-54
2022/09/25 02:28:24;;;;;;;4.57;2.08;;;10.80;99.90;;;;;;5049932;28;20219;-52
2022/09/25 02:30:55;;;;;;;6.72;1.38;;;10.40;99.90;;;;;;5050777;28;20065;-45
2022/09/25 02:33:21;;;;;;;4.45;1.45;;;10.70;99.90;;;;;;5048237;28;20036;-46
2022/09/25 02:35:47;;;;;;;7.72;1.70;;;10.80;99.90;;;;;;5050688;28;20029;-45
2022/09/25 02:38:14;;;;;;;7.68;1.98;;;10.80;99.90;;;;;;5050655;28;20036;-45
2022/09/25 02:41:08;;;;;;;2.85;1.20;;;10.80;99.90;;;;;;5050401;28;20029;-45
2022/09/25 02:43:53;;;;;;;9.10;2.30;;;10.80;99.90;;;;;;5039420;28;20423;-49
2022/09/25 02:46:46;;;;;;;5.47;1.83;;;10.80;99.90;;;;;;5054540;28;20029;-47
2022/09/25 02:49:28;;;;;;;5.43;1.65;;;10.80;99.90;;;;;;5054485;28;20068;-45
2022/09/25 02:52:26;;;;;;;5.90;1.52;;;10.80;99.90;;;;;;5045983;28;20531;-45
2022/09/25 02:55:04;;;;;;;8.68;1.80;;;10.80;99.90;;;;;;5049571;28;20053;-48
2022/09/25 02:57:50;;;;;;;3.78;1.73;;;10.80;99.90;;;;;;5054248;28;20427;-48
2022/09/25 03:00:16;;;;;;;4.93;2.00;;;10.80;99.90;;;;;;5040790;28;20426;-51
2022/09/25 03:02:45;;;;;;;6.72;1.80;;;10.80;99.90;;;;;;5054081;28;20025;-56
2022/09/25 03:05:12;;;;;;;8.70;2.30;;;10.70;99.90;;;;;;5054185;28;20025;-49
2022/09/25 03:10:24;;;;;;;3.65;2.00;;;10.70;99.90;;;;;;5054175;28;20043;-51
2022/09/25 03:12:49;;;;;;;8.13;1.77;;;10.70;99.90;;;;;;5054293;28;20520;-53
2022/09/25 03:15:16;;;;;;;8.65;1.88;;;10.70;99.90;;;;;;5053948;28;20128;-48
2022/09/25 03:17:42;;;;;;;7.18;2.00;;;10.80;99.90;;;;;;5054216;28;20035;-49
2022/09/25 03:20:08;;;;;;;6.43;2.13;;;10.70;99.90;;;;;;5054262;28;20036;-45
2022/09/25 03:22:36;;;;;;;9.18;2.15;;;10.60;99.90;;;;;;5054335;28;20025;-49
2022/09/25 03:25:02;;;;;;;5.80;2.15;;;10.60;99.90;;;;;;5054125;28;20507;-45
2022/09/25 03:27:28;;;;;;;6.20;2.20;;;10.60;99.90;;;;;;5053850;28;20036;-48
2022/09/25 03:29:54;;;;;;;8.02;2.30;;;10.70;99.90;;;;;;5053949;28;20033;-48
2022/09/25 03:32:20;;;;;;;4.97;2.00;;;10.60;99.90;;;;;;5053257;28;20032;-47
2022/09/25 03:34:46;;;;;;;8.85;2.42;;;10.60;99.90;;;;;;5053091;28;20053;-44
2022/09/25 03:37:12;;;;;;;7.15;2.38;;;10.60;99.90;;;;;;5053178;28;20044;-45
2022/09/25 03:39:37;;;;;;;5.82;2.10;;;10.50;99.90;;;;;;5053811;28;20553;-50
2022/09/25 03:42:03;;;;;;;8.98;2.45;;;10.50;99.90;;;;;;5053654;28;20035;-48
2022/09/25 03:44:29;;;;;;;5.78;2.33;;;10.50;99.90;;;;;;5053580;28;20109;-53
2022/09/25 03:46:55;;;;;;;5.55;2.03;;;10.40;99.90;;;;;;5053529;28;20112;-46
2022/09/25 03:49:21;;;;;;;4.97;1.83;;;10.40;99.90;;;;;;5053282;28;20091;-52
2022/09/25 03:51:47;;;;;;;4.82;1.92;;;10.40;99.90;;;;;;5053422;28;20033;-51
2022/09/25 03:54:13;;;;;;;8.20;2.28;;;10.30;99.90;;;;;;5053334;28;20037;-47
2022/09/25 03:56:38;;;;;;;7.22;1.95;;;10.30;99.90;;;;;;5052404;28;20017;-50
2022/09/25 03:59:04;;;;;;;7.20;2.05;;;10.20;99.90;;;;;;5053324;28;20468;-47
2022/09/25 04:01:30;;;;;;;7.95;2.20;;;10.20;99.90;;;;;;5052922;28;20442;-47
2022/09/25 04:03:56;;;;;;;8.13;1.90;;;10.20;99.90;;;;;;5053609;28;20025;-52
2022/09/25 04:06:25;;;;;;;7.47;1.92;;;10.20;99.90;;;;;;5053242;28;20127;-52
2022/09/25 04:08:51;;;;;;;5.68;1.60;;;10.20;99.90;;;;;;5053359;28;20055;-47
2022/09/25 04:11:19;;;;;;;4.38;1.88;;;10.30;99.90;;;;;;5052981;28;20025;-49
2022/09/25 04:13:45;;;;;;;5.50;1.92;;;10.10;99.90;;;;;;5053081;28;20124;-50
2022/09/25 04:16:12;;;;;;;8.18;2.58;;;10.10;99.90;;;;;;5052926;28;20099;-49
2022/09/25 04:18:40;;;;;;;7.35;1.98;;;10.10;99.90;;;;;;5052910;28;20491;-45
2022/09/25 04:21:07;;;;;;;6.88;1.88;;;10.10;99.90;;;;;;5052863;28;20569;-49
2022/09/25 04:23:34;;;;;;;8.27;1.83;;;10.00;99.90;;;;;;5052681;28;20384;-49
2022/09/25 04:26:00;;;;;;;9.73;1.80;;;10.10;99.90;;;;;;5052951;28;20496;-48
2022/09/25 04:28:26;;;;;;;5.53;2.00;;;10.00;99.90;;;;;;5054438;28;20138;-45
2022/09/25 04:30:52;;;;;;;6.45;1.75;;;10.10;99.90;;;;;;5055608;28;20049;-45
2022/09/25 04:36:03;;;;;;;7.30;1.92;;;10.00;99.90;;;;;;5048587;28;20078;-47
2022/09/25 04:38:32;;;;;;;7.75;1.80;;;10.00;99.90;;;;;;5053899;28;20056;-45
2022/09/25 04:40:59;;;;;;;6.78;1.65;;;10.00;99.90;;;;;;5052770;28;20035;-50
2022/09/25 04:43:26;;;;;;;6.50;1.73;;;9.90;99.90;;;;;;5052827;28;20506;-47
2022/09/25 04:45:52;;;;;;;9.40;2.05;;;9.90;99.90;;;;;;5052292;28;20120;-44
2022/09/25 04:48:17;;;;;;;7.57;2.13;;;9.90;99.90;;;;;;5052497;28;20048;-45
2022/09/25 04:50:48;;;;;;;10.68;1.70;;;9.90;99.90;;;;;;5052175;28;20040;-44
2022/09/25 04:53:15;;;;;;;6.70;2.38;;;9.80;99.90;;;;;;5038729;28;20021;-44
2022/09/25 04:55:40;;;;;;;11.65;1.88;;;9.80;99.90;;;;;;5052310;28;20503;-45
2022/09/25 04:58:06;;;;;;;8.00;2.15;;;9.80;99.90;;;;;;5052381;28;20063;-45
2022/09/25 05:00:32;;;;;;;6.85;1.80;;;9.80;99.90;;;;;;5051976;28;20491;-47
2022/09/25 05:02:58;;;;;;;5.68;1.98;;;9.80;99.90;;;;;;5051927;28;20021;-48
2022/09/25 05:05:29;;;;;;;5.20;1.70;;;9.80;99.90;;;;;;5051800;28;20021;-45
2022/09/25 05:07:57;;;;;;;7.30;2.45;;;9.80;99.90;;;;;;5051332;28;20029;-48
2022/09/25 05:10:29;;;;;;;7.95;2.00;;;9.70;99.90;;;;;;5051833;28;20029;-52
2022/09/25 05:12:57;;;;;;;6.93;2.10;;;9.70;99.90;;;;;;5052005;28;20032;-50
2022/09/25 05:15:22;;;;;;;8.85;2.55;;;9.70;99.90;;;;;;5050812;28;20045;-48
2022/09/25 05:17:48;;;;;;;4.57;2.25;;;9.70;99.90;;;;;;5051969;28;20082;-48
2022/09/25 05:20:14;;;;;;;7.68;2.20;;;9.70;99.90;;;;;;5051751;28;20162;-46
2022/09/25 05:22:40;;;;;;;7.68;2.47;;;9.70;99.90;;;;;;5051771;28;20049;-47
2022/09/25 05:25:06;;;;;;;7.57;2.42;;;9.60;99.90;;;;;;5051891;28;20083;-51
2022/09/25 05:27:33;;;;;;;8.68;2.08;;;9.60;99.90;;;;;;5051739;28;20047;-45
2022/09/25 05:29:59;;;;;;;6.97;2.78;;;9.60;99.90;;;;;;5051331;28;20075;-51
2022/09/25 05:32:25;;;;;;;10.90;2.63;;;9.60;99.90;;;;;;5051230;28;20028;-48
2022/09/25 05:34:50;;;;;;;8.73;2.65;;;9.60;99.90;;;;;;5051424;28;20037;-45
2022/09/25 05:37:16;;;;;;;7.93;2.50;;;9.60;99.90;;;;;;5051187;28;20029;-51
2022/09/25 05:39:42;;;;;;;7.47;2.30;;;9.60;99.90;;;;;;5051250;28;20361;-52
2022/09/25 05:42:07;;;;;;;6.75;2.90;;;9.50;99.90;;;;;;5051283;28;20061;-48
2022/09/25 05:44:33;;;;;;;5.75;2.47;;;9.50;99.90;;;;;;5051198;28;20036;-46
2022/09/25 05:46:59;;;;;;;11.50;3.38;;;9.50;99.90;;;;;;5051366;28;20371;-45
2022/09/25 05:49:24;;;;;;;7.15;2.78;;;9.50;99.90;;;;;;5051032;28;20045;-49
2022/09/25 05:51:50;;;;;;;6.93;2.67;;;9.50;99.90;;;;;;5051216;28;20023;-50
2022/09/25 05:54:15;;;;;;;4.88;2.55;;;9.40;99.90;;;;;;5051253;28;20037;-50
2022/09/25 05:56:41;;;;;;;5.72;2.80;;;9.40;99.90;;;;;;5051306;28;20476;-48
2022/09/25 05:59:07;;;;;;;8.35;3.20;;;9.40;99.90;;;;;;5051116;28;20037;-47
2022/09/25 06:01:32;;;;;;;10.10;2.67;;;9.40;99.90;;;;;;5050662;28;20037;-46
2022/09/25 06:03:58;;;;;;;6.65;2.70;;;9.40;99.90;;;;;;5050796;28;20017;-45
2022/09/25 06:06:23;;;;;;;7.28;2.92;;;9.40;99.90;;;;;;5050470;28;20041;-48
2022/09/25 06:08:49;;;;;;;5.38;2.58;;;9.40;99.90;;;;;;5051486;28;20021;-50
2022/09/25 06:11:15;;;;;;;8.60;3.75;;;9.50;99.90;;;;;;5049496;28;20403;-47
2022/09/25 06:13:44;;;;;;;7.57;2.80;;;9.50;99.90;;;;;;5050966;28;20481;-49
2022/09/25 06:16:17;;;;;;;8.07;2.60;;;9.50;99.90;;;;;;5050880;28;20037;-50
2022/09/25 06:18:43;;;;;;;7.80;2.67;;;9.60;99.90;;;;;;5050257;28;20032;-47
2022/09/25 06:21:08;;;;;;;9.63;2.90;;;9.60;99.90;;;;;;5050901;28;20108;-48
2022/09/25 06:23:34;;;;;;;7.75;2.92;;;9.60;99.90;;;;;;5050753;28;20013;-45
2022/09/25 06:26:01;;;;;;;6.25;2.78;;;9.60;99.90;;;;;;5050504;28;20179;-47
2022/09/25 06:28:28;;;;;;;5.55;2.80;;;9.60;99.90;;;;;;5050748;28;20069;-49
2022/09/25 06:30:54;;;;;;;10.23;3.08;;;9.70;99.90;;;;;;5050242;28;20013;-48
2022/09/25 06:33:20;;;;;;;7.80;2.78;;;9.70;99.90;;;;;;5050523;28;20132;-46
2022/09/25 06:35:47;;;;;;;8.52;2.90;;;9.70;99.90;;;;;;5050474;28;20028;-46
2022/09/25 06:38:14;;;;;;;7.85;3.00;;;9.70;99.90;;;;;;5050649;28;20024;-44
2022/09/25 06:40:41;;;;;;;9.20;2.65;;;9.80;99.90;;;;;;5049759;28;20025;-45
2022/09/25 06:43:09;;;;;;;9.07;2.80;;;9.80;99.90;;;;;;5045505;28;20024;-48
2022/09/25 06:45:38;;;;;;;6.25;2.40;;;9.90;99.90;;;;;;5042187;28;20146;-44
2022/09/25 06:48:11;;;;;;;11.65;3.08;;;9.90;99.90;;;;;;5047843;28;20032;-46
2022/09/25 06:50:45;;;;;;;4.72;2.55;;;9.90;99.90;;;;;;5049896;28;20045;-46
2022/09/25 06:53:12;;;;;;;5.15;2.67;;;10.00;99.90;;;;;;5047244;28;20029;-46
2022/09/25 06:55:38;;;;;;;7.80;2.42;;;10.00;99.90;;;;;;5049351;28;20057;-47
2022/09/25 06:58:07;;;;;;;9.13;2.83;;;10.10;99.90;;;;;;5049279;28;20025;-47
2022/09/25 07:00:33;;;;;;;7.13;2.40;;;10.10;99.90;;;;;;5048749;28;20033;-54
2022/09/25 07:05:46;;;;;;;9.02;2.92;;;10.10;99.90;;;;;;5047255;28;20051;-50
2022/09/25 07:08:12;;;;;;;7.07;2.47;;;10.20;99.90;;;;;;5049632;28;20025;-45
2022/09/25 07:10:38;;;;;;;10.15;3.15;;;10.30;99.90;;;;;;5049738;28;20013;-52
2022/09/25 07:13:05;;;;;;;6.00;2.47;;;10.40;99.90;;;;;;5047822;28;20025;-48
2022/09/25 07:15:30;;;;;;;7.63;2.47;;;10.40;99.90;;;;;;5049720;28;20037;-47
2022/09/25 07:17:56;;;;;;;7.25;2.58;;;10.50;99.90;;;;;;5049465;28;20028;-48
2022/09/25 07:20:21;;;;;;;5.22;3.30;;;10.50;99.90;;;;;;5049536;28;20033;-46
2022/09/25 07:22:47;;;;;;;9.30;3.45;;;10.60;99.90;;;;;;5049210;28;20021;-47
2022/09/25 07:25:13;;;;;;;10.48;2.67;;;10.70;99.90;;;;;;5049287;28;20025;-46
2022/09/25 07:27:39;;;;;;;7.18;2.10;;;10.80;99.90;;;;;;5045187;28;20526;-47
2022/09/25 07:30:05;;;;;;;6.55;2.13;;;10.90;99.90;;;;;;5046993;28;20021;-49
2022/09/25 07:32:31;;;;;;;5.07;1.95;;;11.00;99.90;;;;;;5049804;28;20045;-49
2022/09/25 07:34:57;;;;;;;6.30;1.95;;;11.20;99.90;;;;;;5052918;28;20083;-50
2022/09/25 07:37:23;;;;;;;4.93;2.25;;;11.30;99.90;;;;;;5048607;28;20032;-48
2022/09/25 07:39:49;;;;;;;7.20;2.80;;;11.60;99.90;;;;;;5055200;28;20438;-51
2022/09/25 07:42:15;;;;;;;7.28;1.90;;;12.30;99.90;;;;;;5065836;28;20494;-49
2022/09/25 07:44:42;;;;;;;7.43;1.90;;;13.00;99.90;;;;;;5056306;28;20029;-47
2022/09/25 07:47:07;;;;;;;2.63;1.40;;;15.40;99.90;;;;;;5047964;28;20170;-45
2022/09/25 07:49:34;;;;;;;5.15;1.60;;;14.60;99.90;;;;;;5052578;28;20400;-45
2022/09/25 07:52:00;;;;;;;5.03;1.80;;;15.50;99.90;;;;;;5052512;28;20029;-45
2022/09/25 07:54:26;;;;;;;5.75;1.50;;;16.20;99.90;;;;;;5052201;28;20045;-48
2022/09/25 07:56:52;;;;;;;5.35;1.20;;;17.10;99.90;;;;;;5052714;28;20032;-46
2022/09/25 07:59:18;;;;;;;4.88;1.15;;;17.60;99.90;;;;;;5052668;28;20120;-45
2022/09/25 08:01:43;;;;;;;5.35;1.50;;;18.40;99.90;;;;;;5053002;28;20056;-45
2022/09/25 08:04:09;;;;;;;6.07;1.17;;;19.00;99.90;;;;;;5052427;28;20112;-47
2022/09/25 08:06:35;;;;;;;5.63;1.13;;;19.40;99.90;;;;;;5052522;28;20047;-47
2022/09/25 08:09:01;;;;;;;5.95;1.20;;;19.70;99.90;;;;;;5052247;28;20033;-46
2022/09/25 08:11:30;;;;;;;4.20;1.35;;;20.30;99.50;;;;;;5060858;28;20091;-47
2022/09/25 08:13:56;;;;;;;8.68;1.20;;;21.00;98.50;;;;;;5056432;28;20433;-44
2022/09/25 08:16:22;;;;;;;4.50;1.23;;;21.40;97.00;;;;;;5051772;28;20395;-45
2022/09/25 08:18:48;;;;;;;3.65;1.27;;;22.10;97.10;;;;;;5054404;28;20052;-47
2022/09/25 08:21:17;;;;;;;3.85;1.00;;;22.80;94.30;;;;;;5052800;28;20025;-49
2022/09/25 08:23:47;;;;;;;7.40;2.50;;;23.80;92.40;;;;;;5053100;28;20029;-45
2022/09/25 08:26:13;;;;;;;4.30;1.40;;;24.30;90.90;;;;;;5055160;28;20203;-45
2022/09/25 08:28:38;;;;;;;4.50;1.00;;;26.00;87.10;;;;;;5053817;28;20112;-45
2022/09/25 08:31:04;;;;;;;4.25;1.17;;;25.90;85.10;;;;;;5056995;28;20079;-46
2022/09/25 08:33:31;;;;;;;3.72;1.10;;;26.40;81.90;;;;;;5053706;28;20028;-45
2022/09/25 08:35:58;;;;;;;4.40;1.10;;;27.00;78.00;;;;;;5054887;28;20395;-49
2022/09/25 08:38:25;;;;;;;3.90;0.98;;;27.50;77.10;;;;;;5054904;28;20028;-50
2022/09/25 08:41:00;;;;;;;4.28;1.05;;;28.10;74.10;;;;;;5052596;28;20039;-47
2022/09/25 08:43:27;;;;;;;2.85;0.80;;;27.70;70.40;;;;;;5055096;28;20024;-47
2022/09/25 08:49:05;;;;;;;5.07;1.00;;;28.80;67.90;;;;;;5030424;28;20069;-45
2022/09/25 08:51:51;;;;;;;4.25;1.13;;;28.80;67.20;;;;;;5049466;28;20120;-46
2022/09/25 08:54:23;;;;;;;3.80;0.90;;;28.90;69.20;;;;;;5049502;28;20041;-49
2022/09/25 08:57:00;;;;;;;5.00;1.15;;;28.30;65.60;;;;;;5042044;28;20480;-45
2022/09/25 08:59:35;;;;;;;4.45;1.00;;;28.40;65.20;;;;;;5050989;28;20575;-46
2022/09/25 09:02:17;;;;;;;5.72;1.35;;;28.70;64.20;;;;;;5047627;28;20043;-51
2022/09/25 09:04:51;;;;;;;4.10;1.00;;;29.00;64.30;;;;;;5048978;28;20031;-46
2022/09/25 09:07:31;;;;;;;3.45;0.75;;;28.30;62.40;;;;;;5050142;28;20040;-48
2022/09/25 09:10:21;;;;;;;2.97;0.80;;;28.30;62.40;;;;;;5051370;28;20037;-54
2022/09/25 09:13:12;;;;;;;3.45;0.82;;;28.40;61.50;;;;;;5050580;28;20051;-47
2022/09/25 09:16:07;;;;;;;4.13;1.13;;;28.60;61.90;;;;;;5035960;28;20396;-49
2022/09/25 09:18:38;;;;;;;4.72;1.02;;;29.20;61.30;;;;;;5049686;28;20511;-47
2022/09/25 09:21:03;;;;;;;3.55;0.85;;;29.50;59.40;;;;;;5048178;28;20025;-50
2022/09/25 09:23:44;;;;;;;4.35;1.00;;;29.60;60.10;;;;;;5049734;28;20036;-52
2022/09/25 09:26:19;;;;;;;2.90;0.93;;;29.80;60.30;;;;;;5041177;28;20036;-48
2022/09/25 09:29:15;;;;;;;3.38;1.10;;;29.50;58.50;;;;;;5049643;28;20104;-56
2022/09/25 09:31:55;;;;;;;5.55;1.10;;;30.00;60.00;;;;;;5050438;28;20378;-45
2022/09/25 09:34:37;;;;;;;3.00;0.77;;;30.10;56.70;;;;;;5045714;28;20113;-46
2022/09/25 09:37:17;;;;;;;3.15;0.68;;;30.20;58.20;;;;;;5046233;28;20057;-50
2022/09/25 09:40:02;;;;;;;5.95;0.95;;;30.30;57.30;;;;;;5040504;28;20021;-50
2022/09/25 09:42:58;;;;;;;2.80;0.70;;;29.00;56.80;;;;;;5050750;28;20025;-47
2022/09/25 09:45:43;;;;;;;5.53;0.90;;;28.70;57.20;;;;;;5049521;28;20037;-48
2022/09/25 09:48:42;;;;;;;4.38;0.80;;;29.40;58.80;;;;;;5038006;28;20017;-52
2022/09/25 09:51:34;;;;;;;4.80;0.95;;;29.60;60.00;;;;;;4989123;28;20513;-50
2022/09/25 09:54:34;;;;;;;3.55;1.00;;;28.50;56.60;;;;;;5037415;28;20052;-48
2022/09/25 09:57:03;;;;;;;2.92;0.80;;;28.50;58.10;;;;;;5046493;28;20029;-44
2022/09/25 09:59:38;;;;;;;3.28;0.90;;;28.50;60.30;;;;;;5040025;28;20124;-53
2022/09/25 10:02:18;;;;;;;2.90;0.68;;;28.70;58.50;;;;;;5047565;28;20323;-49
2022/09/25 10:04:46;;;;;;;2.50;0.80;;;28.60;55.70;;;;;;5049650;28;20029;-47
2022/09/25 10:07:17;;;;;;;3.50;0.90;;;29.20;55.80;;;;;;5051026;28;20070;-48
2022/09/25 10:09:43;;;;;;;2.70;0.80;;;30.30;59.50;;;;;;5050774;28;20657;-44
2022/09/25 10:12:22;;;;;;;5.40;0.88;;;31.60;57.00;;;;;;5050721;28;20017;-45
2022/09/25 10:14:49;;;;;;;5.07;0.80;;;31.20;52.00;;;;;;5045816;28;20095;-49
2022/09/25 10:17:15;;;;;;;3.13;0.80;;;29.70;53.40;;;;;;5041875;28;20025;-45
2022/09/25 10:19:49;;;;;;;3.67;0.65;;;27.50;56.30;;;;;;5050824;28;20090;-46
2022/09/25 10:22:17;;;;;;;3.03;0.93;;;25.60;59.70;;;;;;5048432;28;20071;-49
2022/09/25 10:24:54;;;;;;;6.13;0.85;;;24.90;67.70;;;;;;5044880;28;20052;-55
2022/09/25 10:27:28;;;;;;;3.17;0.93;;;25.10;69.10;;;;;;5036547;28;20052;-48
2022/09/25 10:30:06;;;;;;;5.50;0.80;;;26.80;62.50;;;;;;5043275;28;20443;-48
2022/09/25 10:32:40;;;;;;;4.68;0.75;;;28.20;60.10;;;;;;5048409;28;20021;-46
2022/09/25 10:35:17;;;;;;;3.03;1.10;;;27.60;56.80;;;;;;5050967;28;20403;-48
2022/09/25 10:37:43;;;;;;;2.13;0.60;;;26.80;58.40;;;;;;5051596;28;20025;-45
2022/09/25 10:40:26;;;;;;;4.93;1.00;;;26.30;59.40;;;;;;5052918;28;20258;-52
2022/09/25 10:43:02;;;;;;;2.70;0.88;;;25.10;62.70;;;;;;5050252;28;20044;-50
2022/09/25 10:45:31;;;;;;;3.03;0.77;;;24.80;62.40;;;;;;5054353;28;20021;-47
2022/09/25 10:50:42;;;;;;;4.32;0.80;;;25.90;61.50;;;;;;5053089;28;20676;-49
2022/09/25 10:53:28;;;;;;;3.42;0.80;;;25.30;58.80;;;;;;5052024;28;20115;-47
2022/09/25 10:56:05;;;;;;;4.25;0.57;;;24.90;64.00;;;;;;5049271;28;20056;-45
2022/09/25 10:58:37;;;;;;;4.60;0.90;;;25.40;61.20;;;;;;5050007;28;20065;-47
2022/09/25 11:01:05;;;;;;;3.05;0.85;;;25.30;64.20;;;;;;5050166;28;20111;-49
2022/09/25 11:03:39;;;;;;;3.15;0.65;;;25.90;61.40;;;;;;5049963;28;20032;-49
2022/09/25 11:06:26;;;;;;;1.55;0.60;;;26.40;60.30;;;;;;5048538;28;20029;-48
2022/09/25 11:09:11;;;;;;;3.47;0.70;;;26.30;59.70;;;;;;5052777;28;20033;-49
2022/09/25 11:11:38;;;;;;;3.95;0.60;;;26.30;58.90;;;;;;5054558;28;20114;-49
2022/09/25 11:14:06;;;;;;;4.47;0.70;;;26.70;62.60;;;;;;5055047;28;20134;-49
2022/09/25 11:16:49;;;;;;;4.18;1.02;;;26.60;59.10;;;;;;5055306;28;20119;-48
2022/09/25 11:19:33;;;;;;;3.92;0.75;;;26.90;59.20;;;;;;5049983;28;20033;-54
2022/09/25 11:22:24;;;;;;;2.67;0.60;;;27.10;59.50;;;;;;5053614;28;20017;-47
2022/09/25 11:25:16;;;;;;;3.35;0.90;;;26.40;56.30;;;;;;5053079;28;20465;-44
2022/09/25 11:28:03;;;;;;;3.72;1.00;;;25.50;60.60;;;;;;5043752;28;20021;-44
2022/09/25 11:30:37;;;;;;;3.00;1.20;;;24.80;61.10;;;;;;5053387;28;20027;-48
2022/09/25 11:33:21;;;;;;;4.80;0.95;;;24.40;59.90;;;;;;5052466;28;20108;-44
2022/09/25 11:36:02;;;;;;;5.65;1.10;;;24.60;62.50;;;;;;5051735;28;20045;-45
2022/09/25 11:42:02;;;;;;;3.78;0.60;;;24.60;55.00;;;;;;5045224;28;20083;-45
2022/09/25 11:44:36;;;;;;;2.17;0.60;;;25.00;59.60;;;;;;5048493;28;20553;-47
2022/09/25 11:47:19;;;;;;;1.08;0.50;;;25.30;57.40;;;;;;5044876;28;20055;-47
2022/09/25 11:49:52;;;;;;;1.65;0.63;;;25.20;58.70;;;;;;5053817;28;20087;-50
2022/09/25 11:52:38;;;;;;;2.75;0.63;;;25.70;58.70;;;;;;5054954;28;20162;-48
2022/09/25 11:55:30;;;;;;;2.33;0.52;;;25.90;54.50;;;;;;5047485;28;20056;-47
2022/09/25 11:58:21;;;;;;;2.08;0.60;;;26.10;55.80;;;;;;5051049;28;20484;-44
2022/09/25 12:01:16;;;;;;;2.47;0.50;;;26.10;56.00;;;;;;5051229;28;20480;-46
2022/09/25 12:03:56;;;;;;;2.65;0.65;;;25.80;54.50;;;;;;5051801;28;20029;-47
2022/09/25 12:06:46;;;;;;;2.63;0.70;;;25.50;57.90;;;;;;5052779;28;20029;-46
2022/09/25 12:09:37;;;;;;;3.20;0.82;;;25.30;55.30;;;;;;5052737;28;20472;-45
2022/09/25 12:12:14;;;;;;;4.47;0.80;;;24.30;56.60;;;;;;5050949;28;20032;-53
2022/09/25 12:14:55;;;;;;;5.18;0.65;;;23.00;55.50;;;;;;5051428;28;20044;-48
2022/09/25 12:17:26;;;;;;;1.88;0.60;;;22.20;62.50;;;;;;5051337;28;20033;-50
2022/09/25 12:20:10;;;;;;;2.88;0.73;;;22.40;62.20;;;;;;5052940;28;20059;-50
2022/09/25 12:23:13;;;;;;;1.88;0.77;;;23.10;61.40;;;;;;5052900;28;20098;-48
2022/09/25 12:25:52;;;;;;;3.47;0.60;;;23.70;61.40;;;;;;5052123;28;20029;-44
2022/09/25 12:28:52;;;;;;;2.37;0.50;;;24.40;60.20;;;;;;5052368;28;20029;-43
2022/09/25 12:31:23;;;;;;;4.78;0.80;;;24.40;55.80;;;;;;5051831;28;20127;-46
2022/09/25 12:34:10;;;;;;;2.33;0.60;;;23.40;56.70;;;;;;5052020;28;20357;-43
2022/09/25 12:36:59;;;;;;;2.95;0.60;;;23.60;60.70;;;;;;5044302;28;20036;-47
2022/09/25 12:39:36;;;;;;;4.22;0.60;;;23.00;58.20;;;;;;5041352;28;20041;-50
2022/09/25 12:42:12;;;;;;;2.78;0.93;;;23.30;58.20;;;;;;5044161;28;20047;-52
2022/09/25 12:44:48;;;;;;;3.83;0.93;;;23.40;58.10;;;;;;5042909;28;20041;-54
2022/09/25 12:47:32;;;;;;;1.77;0.90;;;23.40;58.30;;;;;;5048768;28;20086;-48
2022/09/25 12:50:12;;;;;;;2.33;0.80;;;22.70;57.60;;;;;;5046360;28;20040;-51
2022/09/25 12:52:50;;;;;;;3.05;0.85;;;21.50;60.10;;;;;;5041473;28;20439;-51
2022/09/25 12:55:22;;;;;;;3.83;0.60;;;21.40;62.00;;;;;;5046764;28;20049;-44
2022/09/25 12:58:05;;;;;;;4.03;0.80;;;21.30;62.10;;;;;;5050969;28;20069;-43
2022/09/25 13:00:37;;;;;;;5.28;0.70;;;21.00;61.90;;;;;;5050583;28;20680;-44
2022/09/25 13:03:12;;;;;;;2.88;0.70;;;20.90;63.00;;;;;;5052090;28;20017;-45
2022/09/25 13:05:48;;;;;;;2.53;0.75;;;20.60;62.40;;;;;;5048833;28;20020;-47
2022/09/25 13:08:56;;;;;;;3.42;0.55;;;20.50;64.50;;;;;;5046049;28;20032;-52
2022/09/25 13:11:47;;;;;;;1.98;0.50;;;20.40;59.90;;;;;;5043806;28;20380;-48
2022/09/25 13:14:33;;;;;;;2.95;0.55;;;20.80;62.20;;;;;;5050578;28;20069;-47
2022/09/25 13:17:00;;;;;;;1.83;0.50;;;21.10;63.30;;;;;;5048045;28;20025;-49
2022/09/25 13:19:34;;;;;;;3.08;0.70;;;21.30;64.00;;;;;;5052614;28;20322;-44
2022/09/25 13:22:05;;;;;;;2.08;0.52;;;21.30;60.30;;;;;;5045795;28;20028;-48
2022/09/25 13:24:51;;;;;;;1.77;0.60;;;21.20;59.90;;;;;;5051647;28;20535;-45
2022/09/25 13:27:23;;;;;;;3.08;0.73;;;20.90;58.00;;;;;;5051276;28;20112;-46
2022/09/25 13:29:58;;;;;;;2.53;0.60;;;21.10;62.20;;;;;;5051852;28;20498;-50
2022/09/25 13:32:33;;;;;;;3.47;0.80;;;21.20;63.50;;;;;;5052315;28;20502;-48
2022/09/25 13:35:05;;;;;;;2.28;0.80;;;21.00;59.80;;;;;;5053723;28;20037;-45
2022/09/25 13:37:34;;;;;;;3.25;0.60;;;20.90;64.90;;;;;;5052960;28;20110;-46
2022/09/25 13:43:25;;;;;;;2.45;0.60;;;20.50;62.10;;;;;;5049665;28;20036;-45